createdAt,value
2023-03-16T00:01:08.416Z,3.78
2023-03-16T00:03:37.146Z,3.76
2023-03-16T00:06:06.267Z,3.80
2023-03-16T00:08:35.842Z,3.78
2023-03-16T00:11:04.942Z,3.78
2023-03-16T00:13:33.534Z,3.78
2023-03-16T00:16:07.908Z,3.73
2023-03-16T00:18:39.347Z,3.73
2023-03-16T00:21:08.494Z,3.70
2023-03-16T00:23:37.279Z,3.61
2023-03-16T00:26:10.180Z,3.65
2023-03-16T00:28:39.285Z,3.65
2023-03-16T00:31:12.516Z,3.64
2023-03-16T00:33:43.026Z,3.63
2023-03-16T00:36:12.802Z,3.60
2023-03-16T00:38:45.926Z,3.63
2023-03-16T00:41:15.916Z,3.60
2023-03-16T00:43:45.007Z,3.59
2023-03-16T00:46:17.945Z,3.60
2023-03-16T00:48:47.908Z,3.61
2023-03-16T00:51:18.931Z,3.61
2023-03-16T00:53:48.112Z,3.61
2023-03-16T00:56:17.364Z,3.57
2023-03-16T00:58:46.179Z,3.52
2023-03-16T01:01:20.236Z,3.51
2023-03-16T01:03:50.088Z,3.56
2023-03-16T01:06:20.847Z,3.57
2023-03-16T01:08:49.960Z,3.55
2023-03-16T01:11:22.985Z,3.45
2023-03-16T01:13:54.543Z,3.47
2023-03-16T01:16:25.934Z,3.41
2023-03-16T01:18:55.335Z,3.38
2023-03-16T01:21:24.906Z,3.41
2023-03-16T01:23:54.114Z,3.41
2023-03-16T01:26:25.390Z,3.39
2023-03-16T01:28:55.094Z,3.36
2023-03-16T01:31:24.564Z,3.40
2023-03-16T01:33:53.514Z,3.37
2023-03-16T01:36:25.572Z,3.40
2023-03-16T01:39:00.255Z,3.26
2023-03-16T01:41:32.040Z,3.23
2023-03-16T01:44:00.837Z,3.28
2023-03-16T01:46:32.300Z,3.27
2023-03-16T01:49:13.321Z,3.25
2023-03-16T01:51:52.988Z,3.26
2023-03-16T01:54:36.417Z,3.26
2023-03-16T01:57:22.758Z,3.24
2023-03-16T02:00:22.038Z,3.28
2023-03-16T02:03:11.875Z,3.30
2023-03-16T02:06:19.448Z,3.22
2023-03-16T02:08:55.713Z,3.28
2023-03-16T02:11:25.746Z,3.27
2023-03-16T02:14:11.378Z,3.23
2023-03-16T02:16:41.773Z,3.15
2023-03-16T02:19:24.783Z,3.25
2023-03-16T02:22:07.298Z,3.28
2023-03-16T02:24:38.008Z,3.28
2023-03-16T02:27:26.316Z,3.21
2023-03-16T02:30:14.621Z,3.20
2023-03-16T02:32:57.237Z,3.23
2023-03-16T02:35:26.455Z,3.19
2023-03-16T02:37:55.546Z,3.22
2023-03-16T02:40:34.000Z,3.25
2023-03-16T02:43:22.111Z,3.24
2023-03-16T02:46:05.493Z,3.21
2023-03-16T02:49:05.965Z,3.17
2023-03-16T02:51:34.907Z,3.16
2023-03-16T02:54:04.208Z,3.21
2023-03-16T02:56:34.637Z,3.24
2023-03-16T02:59:03.429Z,3.15
2023-03-16T03:01:35.026Z,3.18
2023-03-16T03:04:05.993Z,3.18
2023-03-16T03:06:34.952Z,3.18
2023-03-16T03:09:05.321Z,3.20
2023-03-16T03:11:34.167Z,3.20
2023-03-16T03:14:04.027Z,3.27
2023-03-16T03:16:35.987Z,3.28
2023-03-16T03:19:04.845Z,3.24
2023-03-16T03:21:36.444Z,3.26
2023-03-16T03:24:06.186Z,3.22
2023-03-16T03:26:38.295Z,3.25
2023-03-16T03:29:08.724Z,3.27
2023-03-16T03:31:37.687Z,3.30
2023-03-16T03:34:06.993Z,3.21
2023-03-16T03:36:37.211Z,3.18
2023-03-16T03:39:07.696Z,3.22
2023-03-16T03:41:36.962Z,3.20
2023-03-16T03:44:06.055Z,3.24
2023-03-16T03:46:35.703Z,3.20
2023-03-16T03:49:05.583Z,3.23
2023-03-16T03:51:36.232Z,3.21
2023-03-16T03:54:09.291Z,3.22
2023-03-16T03:56:54.922Z,3.23
2023-03-16T03:59:23.742Z,3.25
2023-03-16T04:02:39.138Z,3.29
2023-03-16T04:05:10.101Z,3.29
2023-03-16T04:07:39.331Z,3.23
2023-03-16T04:10:10.056Z,3.28
2023-03-16T04:12:41.284Z,3.28
2023-03-16T04:15:12.889Z,3.28
2023-03-16T04:18:00.459Z,3.27
2023-03-16T04:20:30.002Z,3.27
2023-03-16T04:22:59.450Z,3.33
2023-03-16T04:25:28.274Z,3.33
2023-03-16T04:27:57.308Z,3.30
2023-03-16T04:30:29.491Z,3.34
2023-03-16T04:33:06.764Z,3.30
2023-03-16T04:35:35.573Z,3.35
2023-03-16T04:38:04.522Z,3.26
2023-03-16T04:40:40.699Z,3.28
2023-03-16T04:43:14.277Z,3.28
2023-03-16T04:45:44.327Z,3.27
2023-03-16T04:48:14.904Z,3.26
2023-03-16T04:50:45.502Z,3.28
2023-03-16T04:53:14.636Z,3.27
2023-03-16T04:55:47.005Z,3.26
2023-03-16T04:58:16.328Z,3.19
2023-03-16T05:00:45.706Z,3.21
2023-03-16T05:03:21.950Z,3.32
2023-03-16T05:05:51.291Z,3.32
2023-03-16T05:08:20.365Z,3.39
2023-03-16T05:10:50.486Z,3.39
2023-03-16T05:13:19.675Z,3.36
2023-03-16T05:15:49.351Z,3.32
2023-03-16T05:18:28.416Z,3.37
2023-03-16T05:20:57.355Z,3.31
2023-03-16T05:23:29.058Z,3.22
2023-03-16T05:26:01.579Z,3.27
2023-03-16T05:28:32.173Z,3.21
2023-03-16T05:31:10.215Z,3.27
2023-03-16T05:33:45.099Z,3.25
2023-03-16T05:36:17.715Z,3.22
2023-03-16T05:38:48.421Z,3.26
2023-03-16T05:41:25.427Z,3.23
2023-03-16T05:44:40.670Z,3.25
2023-03-16T05:48:02.135Z,3.21
2023-03-16T05:50:31.942Z,3.26
2023-03-16T05:53:00.945Z,3.23
2023-03-16T05:55:30.399Z,3.27
2023-03-16T05:58:03.825Z,3.22
2023-03-16T06:00:35.847Z,3.26
2023-03-16T06:03:09.946Z,3.27
2023-03-16T06:05:39.373Z,3.31
2023-03-16T06:08:09.320Z,3.32
2023-03-16T06:10:38.338Z,3.37
2023-03-16T06:13:07.467Z,3.38
2023-03-16T06:15:36.248Z,3.39
2023-03-16T06:18:06.347Z,3.29
2023-03-16T06:20:35.757Z,3.23
2023-03-16T06:23:06.094Z,3.28
2023-03-16T06:25:35.531Z,3.27
2023-03-16T06:28:05.491Z,3.27
2023-03-16T06:30:35.084Z,3.22
2023-03-16T06:33:04.525Z,3.25
2023-03-16T06:35:34.813Z,3.19
2023-03-16T06:38:18.274Z,3.21
2023-03-16T06:41:09.066Z,3.17
2023-03-16T06:43:38.004Z,3.23
2023-03-16T06:46:07.189Z,3.22
2023-03-16T06:48:36.253Z,3.29
2023-03-16T06:51:07.768Z,3.23
2023-03-16T06:53:36.867Z,3.24
2023-03-16T06:56:06.127Z,3.20
2023-03-16T06:58:39.719Z,3.21
2023-03-16T07:01:08.649Z,3.31
2023-03-16T07:03:38.247Z,3.34
2023-03-16T07:06:15.642Z,3.31
2023-03-16T07:08:46.854Z,3.34
2023-03-16T07:11:22.109Z,3.37
2023-03-16T07:13:53.639Z,3.40
2023-03-16T07:16:23.941Z,3.42
2023-03-16T07:18:53.486Z,3.45
2023-03-16T07:21:22.852Z,3.47
2023-03-16T07:23:52.905Z,3.45
2023-03-16T07:26:26.579Z,3.48
2023-03-16T07:28:58.239Z,3.51
2023-03-16T07:31:29.452Z,3.53
2023-03-16T07:34:00.451Z,3.53
2023-03-16T07:36:36.147Z,3.47
2023-03-16T07:39:06.468Z,3.54
2023-03-16T07:41:36.120Z,3.62
2023-03-16T07:44:19.167Z,3.62
2023-03-16T07:46:53.544Z,3.67
2023-03-16T07:49:27.885Z,3.69
2023-03-16T07:51:57.486Z,3.65
2023-03-16T07:54:30.905Z,3.62
2023-03-16T07:56:59.937Z,3.69
2023-03-16T07:59:35.309Z,3.71
2023-03-16T08:02:05.495Z,3.71
2023-03-16T08:04:35.180Z,3.73
2023-03-16T08:07:04.724Z,3.74
2023-03-16T08:09:46.579Z,3.78
2023-03-16T08:12:18.400Z,3.73
2023-03-16T08:14:48.554Z,3.77
2023-03-16T08:17:27.996Z,3.76
2023-03-16T08:19:59.756Z,3.76
2023-03-16T08:22:29.276Z,3.79
2023-03-16T08:24:58.538Z,3.81
2023-03-16T08:27:29.796Z,3.77
2023-03-16T08:30:05.365Z,3.89
2023-03-16T08:32:34.953Z,3.88
2023-03-16T08:35:05.037Z,3.89
2023-03-16T08:37:33.959Z,3.91
2023-03-16T08:40:06.443Z,3.92
2023-03-16T08:42:35.410Z,3.91
2023-03-16T08:45:12.396Z,3.87
2023-03-16T08:47:43.172Z,3.91
2023-03-16T08:50:16.089Z,3.94
2023-03-16T08:52:49.668Z,4.05
2023-03-16T08:55:25.286Z,4.14
2023-03-16T08:57:57.896Z,4.05
2023-03-16T09:00:30.125Z,4.07
2023-03-16T09:03:03.406Z,4.07
2023-03-16T09:05:35.676Z,4.15
2023-03-16T09:08:06.888Z,4.00
2023-03-16T09:10:39.787Z,4.17
2023-03-16T09:13:10.399Z,4.15
2023-03-16T09:15:40.631Z,4.14
2023-03-16T09:18:11.769Z,4.10
2023-03-16T09:20:40.919Z,4.16
2023-03-16T09:23:09.890Z,4.25
2023-03-16T09:25:39.477Z,4.27
2023-03-16T09:28:09.990Z,4.27
2023-03-16T09:30:39.266Z,4.27
2023-03-16T09:35:57.874Z,4.24
2023-03-16T09:38:27.288Z,4.22
2023-03-16T09:41:07.121Z,4.25
2023-03-16T09:43:36.024Z,4.32
2023-03-16T09:46:10.005Z,4.32
2023-03-16T09:48:44.268Z,4.37
2023-03-16T09:51:38.287Z,4.37
2023-03-16T09:54:56.652Z,4.30
2023-03-16T09:57:47.380Z,4.39
2023-03-16T10:00:31.773Z,4.38
2023-03-16T10:03:17.763Z,4.43
2023-03-16T10:05:56.229Z,4.41
2023-03-16T10:08:33.161Z,4.41
2023-03-16T10:11:31.759Z,4.38
2023-03-16T10:14:17.876Z,4.37
2023-03-16T10:17:25.135Z,4.39
2023-03-16T10:20:02.423Z,4.38
2023-03-16T10:22:35.860Z,4.38
2023-03-16T10:25:22.809Z,4.41
2023-03-16T10:27:52.508Z,4.45
2023-03-16T10:30:34.447Z,4.41
2023-03-16T10:33:19.886Z,4.40
2023-03-16T10:36:05.816Z,4.43
2023-03-16T10:38:43.811Z,4.40
2023-03-16T10:41:33.561Z,4.45
2023-03-16T10:44:08.682Z,4.45
2023-03-16T10:46:48.739Z,4.52
2023-03-16T10:49:21.872Z,4.56
2023-03-16T10:51:51.469Z,4.58
2023-03-16T10:54:39.347Z,4.63
2023-03-16T10:57:41.745Z,4.67
2023-03-16T11:00:27.002Z,4.75
2023-03-16T11:02:59.277Z,4.82
2023-03-16T11:05:34.801Z,4.84
2023-03-16T11:08:13.709Z,4.86
2023-03-16T11:10:55.505Z,4.84
2023-03-16T11:13:34.047Z,4.83
2023-03-16T11:16:46.537Z,4.96
2023-03-16T11:19:42.914Z,4.80
2023-03-16T11:22:24.530Z,4.96
2023-03-16T11:25:09.592Z,4.95
2023-03-16T11:27:46.356Z,4.95
2023-03-16T11:30:24.936Z,5.02
2023-03-16T11:32:54.471Z,5.05
2023-03-16T11:36:07.294Z,5.09
2023-03-16T11:38:58.623Z,5.19
2023-03-16T11:41:48.550Z,5.26
2023-03-16T11:44:55.574Z,5.27
2023-03-16T11:47:46.599Z,5.25
2023-03-16T11:50:22.522Z,5.34
2023-03-16T11:53:29.432Z,5.36
2023-03-16T11:56:19.204Z,5.25
2023-03-16T11:59:27.821Z,5.22
2023-03-16T12:02:35.106Z,5.27
2023-03-16T12:05:56.662Z,5.14
2023-03-16T12:08:59.409Z,5.01
2023-03-16T12:11:34.741Z,4.83
2023-03-16T12:14:39.164Z,4.84
2023-03-16T12:17:16.894Z,4.88
2023-03-16T12:20:28.141Z,4.87
2023-03-16T12:23:11.733Z,4.94
2023-03-16T12:25:42.997Z,4.96
2023-03-16T12:28:26.115Z,5.06
2023-03-16T12:31:09.647Z,5.02
2023-03-16T12:34:21.203Z,5.08
2023-03-16T12:37:25.842Z,4.99
2023-03-16T12:40:09.283Z,5.09
2023-03-16T12:42:43.225Z,5.13
2023-03-16T12:45:15.239Z,5.20
2023-03-16T12:48:29.242Z,5.21
2023-03-16T12:51:05.235Z,5.20
2023-03-16T12:53:53.401Z,5.26
2023-03-16T12:56:32.240Z,5.28
2023-03-16T12:59:07.773Z,5.35
2023-03-16T13:01:44.765Z,5.38
2023-03-16T13:04:23.720Z,5.36
2023-03-16T13:07:08.162Z,5.38
2023-03-16T13:09:46.407Z,5.38
2023-03-16T13:12:33.006Z,5.24
2023-03-16T13:15:02.315Z,5.29
2023-03-16T13:17:33.924Z,5.23
2023-03-16T13:20:30.743Z,5.24
2023-03-16T13:23:18.905Z,5.26
2023-03-16T13:26:14.828Z,5.26
2023-03-16T13:28:51.646Z,5.23
2023-03-16T13:31:41.421Z,5.21
2023-03-16T13:34:19.938Z,5.22
2023-03-16T13:36:53.585Z,5.27
2023-03-16T13:39:28.037Z,5.21
2023-03-16T13:42:19.338Z,5.23
2023-03-16T13:44:48.504Z,5.21
2023-03-16T13:47:20.272Z,5.17
2023-03-16T13:49:55.440Z,5.23
2023-03-16T13:52:31.601Z,5.28
2023-03-16T13:55:16.376Z,5.31
2023-03-16T13:57:46.647Z,5.30
2023-03-16T14:00:21.828Z,5.25
2023-03-16T14:02:57.336Z,5.25
2023-03-16T14:05:33.666Z,5.25
2023-03-16T14:08:05.169Z,5.21
2023-03-16T14:10:36.966Z,5.18
2023-03-16T14:13:22.518Z,5.14
2023-03-16T14:15:54.785Z,5.13
2023-03-16T14:18:32.311Z,5.16
2023-03-16T14:21:08.189Z,5.19
2023-03-16T14:23:45.044Z,5.21
2023-03-16T14:26:16.891Z,5.19
2023-03-16T14:29:28.514Z,5.21
2023-03-16T14:32:00.063Z,5.15
2023-03-16T14:34:39.696Z,5.18
2023-03-16T14:37:15.987Z,5.16
2023-03-16T14:39:45.827Z,5.21
2023-03-16T14:42:31.480Z,5.21
2023-03-16T14:45:05.034Z,5.21
2023-03-16T14:47:42.083Z,5.18
2023-03-16T14:50:26.757Z,5.18
2023-03-16T14:52:57.067Z,5.21
2023-03-16T14:55:26.090Z,5.19
2023-03-16T14:57:55.876Z,5.33
2023-03-16T15:00:27.566Z,5.32
2023-03-16T15:03:06.766Z,5.30
2023-03-16T15:05:45.999Z,5.20
2023-03-16T15:08:44.706Z,5.26
2023-03-16T15:11:17.016Z,5.21
2023-03-16T15:13:47.037Z,5.16
2023-03-16T15:16:15.983Z,5.18
2023-03-16T15:18:44.854Z,5.15
2023-03-16T15:21:25.298Z,5.18
2023-03-16T15:23:54.181Z,5.14
2023-03-16T15:26:28.693Z,5.12
2023-03-16T15:28:58.219Z,5.02
2023-03-16T15:31:28.570Z,5.04
2023-03-16T15:33:57.398Z,4.97
2023-03-16T15:36:26.348Z,5.02
2023-03-16T15:38:55.804Z,4.96
2023-03-16T15:41:30.121Z,4.96
2023-03-16T15:44:01.600Z,5.00
2023-03-16T15:46:31.027Z,5.05
2023-03-16T15:48:59.854Z,4.98
2023-03-16T15:51:30.872Z,5.03
2023-03-16T15:54:04.059Z,5.05
2023-03-16T15:56:47.490Z,5.04
2023-03-16T15:59:23.791Z,5.09
2023-03-16T16:01:53.062Z,5.09
2023-03-16T16:04:24.470Z,5.12
2023-03-16T16:06:57.945Z,5.12
2023-03-16T16:09:26.714Z,5.10
2023-03-16T16:11:55.454Z,5.06
2023-03-16T16:14:26.854Z,5.08
2023-03-16T16:16:55.829Z,5.00
2023-03-16T16:19:25.584Z,4.97
2023-03-16T16:21:54.368Z,5.02
2023-03-16T16:24:23.677Z,5.04
2023-03-16T16:26:55.343Z,4.98
2023-03-16T16:29:35.247Z,5.07
2023-03-16T16:32:04.534Z,5.10
2023-03-16T16:34:33.460Z,5.06
2023-03-16T16:37:02.322Z,5.07
2023-03-16T16:39:31.272Z,4.99
2023-03-16T16:42:00.228Z,4.98
2023-03-16T16:44:34.424Z,5.00
2023-03-16T16:47:18.101Z,5.01
2023-03-16T16:49:46.919Z,5.03
2023-03-16T16:52:29.421Z,5.03
2023-03-16T16:54:58.350Z,4.97
2023-03-16T16:57:27.328Z,4.99
2023-03-16T16:59:57.299Z,4.97
2023-03-16T17:02:40.441Z,4.99
2023-03-16T17:05:18.839Z,4.94
2023-03-16T17:07:49.745Z,4.95
2023-03-16T17:10:25.578Z,5.00
2023-03-16T17:12:57.225Z,4.92
2023-03-16T17:15:32.442Z,4.91
2023-03-16T17:18:13.448Z,4.91
2023-03-16T17:20:42.267Z,4.94
2023-03-16T17:23:25.157Z,4.90
2023-03-16T17:25:56.152Z,4.91
2023-03-16T17:28:28.478Z,4.92
2023-03-16T17:30:57.784Z,4.93
2023-03-16T17:33:29.091Z,4.90
2023-03-16T17:35:57.959Z,4.92
2023-03-16T17:38:26.736Z,4.93
2023-03-16T17:40:56.064Z,4.92
2023-03-16T17:43:24.863Z,4.86
2023-03-16T17:45:53.740Z,4.86
2023-03-16T17:48:24.772Z,4.87
2023-03-16T17:50:53.541Z,4.87
2023-03-16T17:53:22.509Z,4.84
2023-03-16T17:55:51.470Z,4.83
2023-03-16T17:58:30.584Z,4.86
2023-03-16T18:00:59.332Z,4.89
2023-03-16T18:03:30.510Z,4.90
2023-03-16T18:05:59.544Z,4.88
2023-03-16T18:08:36.159Z,4.86
2023-03-16T18:11:12.859Z,4.77
2023-03-16T18:13:42.648Z,4.81
2023-03-16T18:16:23.431Z,4.80
2023-03-16T18:19:00.771Z,4.79
2023-03-16T18:21:30.235Z,4.76
2023-03-16T18:23:59.591Z,4.73
2023-03-16T18:26:28.739Z,4.68
2023-03-16T18:28:58.201Z,4.69
2023-03-16T18:31:28.368Z,4.67
2023-03-16T18:34:01.162Z,4.65
2023-03-16T18:36:33.608Z,4.64
2023-03-16T18:39:05.917Z,4.58
2023-03-16T18:41:36.151Z,4.59
2023-03-16T18:44:19.072Z,4.57
2023-03-16T18:46:49.894Z,4.60
2023-03-16T18:49:26.586Z,4.57
2023-03-16T18:51:55.643Z,4.58
2023-03-16T18:54:37.070Z,4.57
2023-03-16T18:57:17.817Z,4.54
2023-03-16T18:59:47.329Z,4.54
2023-03-16T19:02:29.869Z,4.54
2023-03-16T19:05:01.028Z,4.51
2023-03-16T19:07:38.556Z,4.45
2023-03-16T19:10:26.733Z,4.44
2023-03-16T19:12:55.992Z,4.37
2023-03-16T19:15:28.975Z,4.40
2023-03-16T19:17:58.393Z,4.41
2023-03-16T19:20:30.572Z,4.42
2023-03-16T19:23:13.937Z,4.37
2023-03-16T19:25:42.810Z,4.36
2023-03-16T19:28:34.402Z,4.34
2023-03-16T19:31:14.522Z,4.35
2023-03-16T19:33:43.474Z,4.34
2023-03-16T19:36:33.743Z,4.32
2023-03-16T19:39:04.207Z,4.34
2023-03-16T19:41:37.361Z,4.37
2023-03-16T19:44:20.700Z,4.41
2023-03-16T19:46:50.377Z,4.41
2023-03-16T19:49:22.946Z,4.42
2023-03-16T19:51:54.518Z,4.43
2023-03-16T19:54:34.027Z,4.43
2023-03-16T19:57:12.621Z,4.36
2023-03-16T19:59:42.740Z,4.39
2023-03-16T20:02:26.694Z,4.36
2023-03-16T20:04:56.325Z,4.35
2023-03-16T20:07:25.827Z,4.33
2023-03-16T20:09:54.555Z,4.29
2023-03-16T20:12:30.509Z,4.28
2023-03-16T20:15:02.336Z,4.21
2023-03-16T20:17:33.061Z,4.17
2023-03-16T20:20:02.163Z,4.11
2023-03-16T20:22:30.891Z,4.04
2023-03-16T20:25:02.146Z,4.02
2023-03-16T20:27:31.680Z,3.94
2023-03-16T20:30:00.758Z,3.89
2023-03-16T20:32:36.352Z,3.86
2023-03-16T20:35:19.053Z,3.78
2023-03-16T20:37:47.937Z,3.73
2023-03-16T20:40:17.104Z,3.70
2023-03-16T20:42:47.532Z,3.63
2023-03-16T20:45:28.710Z,3.57
2023-03-16T20:47:57.827Z,3.54
2023-03-16T20:50:30.879Z,3.53
2023-03-16T20:52:59.551Z,3.46
2023-03-16T20:55:29.502Z,3.46
2023-03-16T20:57:58.830Z,3.41
2023-03-16T21:00:37.111Z,3.37
2023-03-16T21:03:23.782Z,3.35
2023-03-16T21:05:55.660Z,3.33
2023-03-16T21:08:25.245Z,3.27
2023-03-16T21:10:56.418Z,3.21
2023-03-16T21:13:33.729Z,3.21
2023-03-16T21:16:03.612Z,3.23
2023-03-16T21:18:33.184Z,3.22
2023-03-16T21:21:03.216Z,3.20
2023-03-16T21:23:31.982Z,3.15
2023-03-16T21:26:03.944Z,3.15
2023-03-16T21:28:35.088Z,3.16
2023-03-16T21:31:06.018Z,3.17
2023-03-16T21:33:39.202Z,3.16
2023-03-16T21:36:22.509Z,3.13
2023-03-16T21:38:51.735Z,3.06
2023-03-16T21:41:20.724Z,3.04
2023-03-16T21:43:50.303Z,3.07
2023-03-16T21:46:22.507Z,3.01
2023-03-16T21:48:55.966Z,3.00
2023-03-16T21:51:34.621Z,2.99
2023-03-16T21:54:03.594Z,2.95
2023-03-16T21:56:32.801Z,2.91
2023-03-16T21:59:01.677Z,2.90
2023-03-16T22:01:33.082Z,2.90
2023-03-16T22:04:16.760Z,2.86
2023-03-16T22:06:46.205Z,2.81
2023-03-16T22:09:22.614Z,2.78
2023-03-16T22:11:51.564Z,2.68
2023-03-16T22:14:20.548Z,2.63
2023-03-16T22:16:49.741Z,2.58
2023-03-16T22:19:18.495Z,2.53
2023-03-16T22:21:47.984Z,2.49
2023-03-16T22:24:21.211Z,2.51
2023-03-16T22:26:50.913Z,2.46
2023-03-16T22:29:33.854Z,2.41
2023-03-16T22:32:17.240Z,2.37
2023-03-16T22:34:45.730Z,2.32
2023-03-16T22:37:21.234Z,2.26
2023-03-16T22:39:50.542Z,2.26
2023-03-16T22:42:38.235Z,2.26
2023-03-16T22:45:28.632Z,2.25
2023-03-16T22:47:59.933Z,2.24
2023-03-16T22:50:34.926Z,2.23
2023-03-16T22:53:08.410Z,2.23
2023-03-16T22:55:40.243Z,2.22
2023-03-16T22:58:41.137Z,2.20
2023-03-16T23:01:23.363Z,2.19
2023-03-16T23:03:53.873Z,2.19
2023-03-16T23:06:32.361Z,2.17
2023-03-16T23:09:01.155Z,2.19
2023-03-16T23:11:36.051Z,2.16
2023-03-16T23:14:14.454Z,2.15
2023-03-16T23:16:44.062Z,2.18
2023-03-16T23:19:30.125Z,2.18
2023-03-16T23:22:05.774Z,2.14
2023-03-16T23:24:36.240Z,2.14
2023-03-16T23:27:08.135Z,2.10
2023-03-16T23:29:37.128Z,2.00
2023-03-16T23:32:06.623Z,2.03
2023-03-16T23:34:35.300Z,2.04
2023-03-16T23:37:04.058Z,2.06
2023-03-16T23:39:32.801Z,2.03
2023-03-16T23:42:01.919Z,2.03
2023-03-16T23:44:31.454Z,2.01
2023-03-16T23:47:00.793Z,1.99
2023-03-16T23:49:33.141Z,1.95
2023-03-16T23:52:02.341Z,1.94
2023-03-16T23:54:32.833Z,1.92
2023-03-16T23:57:01.608Z,1.87
2023-03-16T23:59:30.402Z,1.86
